首页
METAR-TAF:

METAR-TAF

机场 :

辛普森堡, 西北特區, 加拿大

纬度: 61-45N, 经度: 121-14W, 海拔: 168米

当前天气观测

该预报发布于1小时和6分钟前的05:00 UTC
风速5节,风向北转西北
温度 10°C
湿度 93%
气压 998 hPa
能見度: 24.1公里
多云层高于900英尺
阴天层高于2000英尺
小雨

METAR: CYFS 230500Z 34005KT 15SM -RA BKN009 OVC020 10/09 A2947 RMK SC5SC3 SLP989 DENSITY ALT 600FT

时间: 00:06 (06:06 UTC)

预报

该预报发布于13分钟前的05:53 UTC
预报有效从23日的 06点(UTC)到 23日的 18点(UTC)
风速5节,风向北转西北
能見度: 10公里
散云层高于600英尺
阴天层高于2000英尺
小雨
短暂存在
从 23日的 06点(UTC)到 23日的 18点(UTC)
能見度: 6.4公里
多云层高于600英尺
阴天层高于1500英尺
小雨, 轻雾

TAF: CYFS 230553Z 2306/2318 33005KT P6SM -RA SCT006 OVC020 TEMPO 2306/2318 4SM -RA BR BKN006 OVC015 RMK NXT FCST BY 231200Z

超过4000个机场的气象观测和天气预报(METAR&TAF报告)。

可查询的气象台以黄色和红色小点在地图上表示。

将鼠标移到小点上方,可查看气象台名称。

然后点击查看天气观测和预报。

如需切换地图:点击带黑十字的绿色按钮放大地图;点击带横线的绿色按钮缩小地图;或者点击绿色箭头查看邻近地区的地图。


METAR-TAF: